<?xml version="1.0" encoding="UTF-8" standalone="no" ?>
<gpx xmlns="http://www.topografix.com/GPX/1/1" xmlns:xsi="http://www.w3.org/2001/XMLSchema-instance" xsi:schemaLocation="http://www.topografix.com/GPX/1/1 http://www.topografix.com/GPX/1/1/gpx.xsd" version="1.1" creator="VisuGPX - https://www.visugpx.com">
  <metadata>
    <name>Course Cagnes sur Mer &lt;=&gt; Villeneuve-loubet</name>
    <desc><![CDATA[Course A pied tranquille sous la pluie]]></desc>
  </metadata>
  <trk>
    <name><![CDATA[CourseFab]]></name>
    <trkseg>
      <trkpt lat="43.6619" lon="7.13371">
        <ele>36</ele>
        <time>2012-04-14T15:44:14Z</time>
      </trkpt>
      <trkpt lat="43.66163" lon="7.13388">
        <ele>30</ele>
        <time>2012-04-14T15:44:23Z</time>
      </trkpt>
      <trkpt lat="43.66146" lon="7.13408">
        <ele>29</ele>
        <time>2012-04-14T15:44:33Z</time>
      </trkpt>
      <trkpt lat="43.66133" lon="7.13435">
        <ele>31</ele>
        <time>2012-04-14T15:44:43Z</time>
      </trkpt>
      <trkpt lat="43.66121" lon="7.13469">
        <ele>31</ele>
        <time>2012-04-14T15:44:53Z</time>
      </trkpt>
      <trkpt lat="43.66116" lon="7.13496">
        <ele>32</ele>
        <time>2012-04-14T15:45:03Z</time>
      </trkpt>
      <trkpt lat="43.66105" lon="7.13522">
        <ele>36</ele>
        <time>2012-04-14T15:45:13Z</time>
      </trkpt>
      <trkpt lat="43.66098" lon="7.13549">
        <ele>37</ele>
        <time>2012-04-14T15:45:23Z</time>
      </trkpt>
      <trkpt lat="43.6609" lon="7.13581">
        <ele>37</ele>
        <time>2012-04-14T15:45:33Z</time>
      </trkpt>
      <trkpt lat="43.66082" lon="7.13618">
        <ele>29</ele>
        <time>2012-04-14T15:45:43Z</time>
      </trkpt>
      <trkpt lat="43.66077" lon="7.13652">
        <ele>28</ele>
        <time>2012-04-14T15:45:53Z</time>
      </trkpt>
      <trkpt lat="43.66071" lon="7.1368">
        <ele>33</ele>
        <time>2012-04-14T15:46:03Z</time>
      </trkpt>
      <trkpt lat="43.66063" lon="7.13713">
        <ele>36</ele>
        <time>2012-04-14T15:46:13Z</time>
      </trkpt>
      <trkpt lat="43.66062" lon="7.13749">
        <ele>27</ele>
        <time>2012-04-14T15:46:23Z</time>
      </trkpt>
      <trkpt lat="43.66058" lon="7.13782">
        <ele>23</ele>
        <time>2012-04-14T15:46:33Z</time>
      </trkpt>
      <trkpt lat="43.66035" lon="7.13789">
        <ele>21</ele>
        <time>2012-04-14T15:46:43Z</time>
      </trkpt>
      <trkpt lat="43.66017" lon="7.1378">
        <ele>21</ele>
        <time>2012-04-14T15:46:53Z</time>
      </trkpt>
      <trkpt lat="43.66011" lon="7.13778">
        <ele>21</ele>
        <time>2012-04-14T15:47:07Z</time>
      </trkpt>
      <trkpt lat="43.66002" lon="7.13772">
        <ele>21</ele>
        <time>2012-04-14T15:47:17Z</time>
      </trkpt>
      <trkpt lat="43.65994" lon="7.13751">
        <ele>19</ele>
        <time>2012-04-14T15:47:27Z</time>
      </trkpt>
      <trkpt lat="43.65998" lon="7.1372">
        <ele>19</ele>
        <time>2012-04-14T15:47:37Z</time>
      </trkpt>
      <trkpt lat="43.65982" lon="7.13701">
        <ele>23</ele>
        <time>2012-04-14T15:47:47Z</time>
      </trkpt>
      <trkpt lat="43.65954" lon="7.13706">
        <ele>23</ele>
        <time>2012-04-14T15:47:57Z</time>
      </trkpt>
      <trkpt lat="43.6593" lon="7.1372">
        <ele>23</ele>
        <time>2012-04-14T15:48:07Z</time>
      </trkpt>
      <trkpt lat="43.6591" lon="7.13733">
        <ele>24</ele>
        <time>2012-04-14T15:48:17Z</time>
      </trkpt>
      <trkpt lat="43.65893" lon="7.13709">
        <ele>27</ele>
        <time>2012-04-14T15:48:27Z</time>
      </trkpt>
      <trkpt lat="43.65884" lon="7.13691">
        <ele>32</ele>
        <time>2012-04-14T15:48:37Z</time>
      </trkpt>
      <trkpt lat="43.65882" lon="7.13668">
        <ele>39</ele>
        <time>2012-04-14T15:48:47Z</time>
      </trkpt>
      <trkpt lat="43.65875" lon="7.1364">
        <ele>50</ele>
        <time>2012-04-14T15:48:57Z</time>
      </trkpt>
      <trkpt lat="43.65867" lon="7.13607">
        <ele>60</ele>
        <time>2012-04-14T15:49:07Z</time>
      </trkpt>
      <trkpt lat="43.65858" lon="7.13569">
        <ele>53</ele>
        <time>2012-04-14T15:49:17Z</time>
      </trkpt>
      <trkpt lat="43.65855" lon="7.13537">
        <ele>43</ele>
        <time>2012-04-14T15:49:27Z</time>
      </trkpt>
      <trkpt lat="43.65855" lon="7.13512">
        <ele>42</ele>
        <time>2012-04-14T15:49:37Z</time>
      </trkpt>
      <trkpt lat="43.6586" lon="7.13484">
        <ele>42</ele>
        <time>2012-04-14T15:49:47Z</time>
      </trkpt>
      <trkpt lat="43.65864" lon="7.13463">
        <ele>44</ele>
        <time>2012-04-14T15:49:57Z</time>
      </trkpt>
      <trkpt lat="43.65869" lon="7.1344">
        <ele>56</ele>
        <time>2012-04-14T15:50:07Z</time>
      </trkpt>
      <trkpt lat="43.6587" lon="7.13405">
        <ele>66</ele>
        <time>2012-04-14T15:50:17Z</time>
      </trkpt>
      <trkpt lat="43.65875" lon="7.13369">
        <ele>69</ele>
        <time>2012-04-14T15:50:27Z</time>
      </trkpt>
      <trkpt lat="43.65876" lon="7.1334">
        <ele>69</ele>
        <time>2012-04-14T15:50:37Z</time>
      </trkpt>
      <trkpt lat="43.6588" lon="7.13313">
        <ele>72</ele>
        <time>2012-04-14T15:50:47Z</time>
      </trkpt>
      <trkpt lat="43.65883" lon="7.13288">
        <ele>78</ele>
        <time>2012-04-14T15:50:57Z</time>
      </trkpt>
      <trkpt lat="43.65889" lon="7.13268">
        <ele>87</ele>
        <time>2012-04-14T15:51:07Z</time>
      </trkpt>
      <trkpt lat="43.65892" lon="7.13252">
        <ele>97</ele>
        <time>2012-04-14T15:51:17Z</time>
      </trkpt>
      <trkpt lat="43.65899" lon="7.13223">
        <ele>115</ele>
        <time>2012-04-14T15:51:27Z</time>
      </trkpt>
      <trkpt lat="43.65913" lon="7.132">
        <ele>130</ele>
        <time>2012-04-14T15:51:37Z</time>
      </trkpt>
      <trkpt lat="43.65922" lon="7.13183">
        <ele>142</ele>
        <time>2012-04-14T15:51:47Z</time>
      </trkpt>
      <trkpt lat="43.65934" lon="7.13164">
        <ele>152</ele>
        <time>2012-04-14T15:51:57Z</time>
      </trkpt>
      <trkpt lat="43.65948" lon="7.13145">
        <ele>162</ele>
        <time>2012-04-14T15:52:07Z</time>
      </trkpt>
      <trkpt lat="43.65962" lon="7.1311">
        <ele>159</ele>
        <time>2012-04-14T15:52:17Z</time>
      </trkpt>
      <trkpt lat="43.65972" lon="7.13077">
        <ele>158</ele>
        <time>2012-04-14T15:52:27Z</time>
      </trkpt>
      <trkpt lat="43.65979" lon="7.13023">
        <ele>113</ele>
        <time>2012-04-14T15:52:37Z</time>
      </trkpt>
      <trkpt lat="43.65986" lon="7.12995">
        <ele>84</ele>
        <time>2012-04-14T15:52:47Z</time>
      </trkpt>
      <trkpt lat="43.65981" lon="7.12967">
        <ele>76</ele>
        <time>2012-04-14T15:52:57Z</time>
      </trkpt>
      <trkpt lat="43.65964" lon="7.12938">
        <ele>59</ele>
        <time>2012-04-14T15:53:07Z</time>
      </trkpt>
      <trkpt lat="43.6595" lon="7.12922">
        <ele>54</ele>
        <time>2012-04-14T15:53:17Z</time>
      </trkpt>
      <trkpt lat="43.65929" lon="7.12922">
        <ele>54</ele>
        <time>2012-04-14T15:53:27Z</time>
      </trkpt>
      <trkpt lat="43.6591" lon="7.12933">
        <ele>49</ele>
        <time>2012-04-14T15:53:37Z</time>
      </trkpt>
      <trkpt lat="43.65885" lon="7.12946">
        <ele>41</ele>
        <time>2012-04-14T15:53:47Z</time>
      </trkpt>
      <trkpt lat="43.65875" lon="7.12913">
        <ele>32</ele>
        <time>2012-04-14T15:53:57Z</time>
      </trkpt>
      <trkpt lat="43.65886" lon="7.12878">
        <ele>28</ele>
        <time>2012-04-14T15:54:08Z</time>
      </trkpt>
      <trkpt lat="43.65891" lon="7.12854">
        <ele>27</ele>
        <time>2012-04-14T15:54:18Z</time>
      </trkpt>
      <trkpt lat="43.65896" lon="7.12817">
        <ele>25</ele>
        <time>2012-04-14T15:54:28Z</time>
      </trkpt>
      <trkpt lat="43.65902" lon="7.12784">
        <ele>25</ele>
        <time>2012-04-14T15:54:38Z</time>
      </trkpt>
      <trkpt lat="43.65904" lon="7.12745">
        <ele>24</ele>
        <time>2012-04-14T15:54:49Z</time>
      </trkpt>
      <trkpt lat="43.65894" lon="7.12715">
        <ele>24</ele>
        <time>2012-04-14T15:54:59Z</time>
      </trkpt>
      <trkpt lat="43.65881" lon="7.12683">
        <ele>28</ele>
        <time>2012-04-14T15:55:09Z</time>
      </trkpt>
      <trkpt lat="43.65874" lon="7.12649">
        <ele>34</ele>
        <time>2012-04-14T15:55:20Z</time>
      </trkpt>
      <trkpt lat="43.65863" lon="7.12616">
        <ele>38</ele>
        <time>2012-04-14T15:55:30Z</time>
      </trkpt>
      <trkpt lat="43.65855" lon="7.12587">
        <ele>31</ele>
        <time>2012-04-14T15:55:40Z</time>
      </trkpt>
      <trkpt lat="43.65846" lon="7.12555">
        <ele>36</ele>
        <time>2012-04-14T15:55:50Z</time>
      </trkpt>
      <trkpt lat="43.65836" lon="7.12525">
        <ele>45</ele>
        <time>2012-04-14T15:56:00Z</time>
      </trkpt>
      <trkpt lat="43.65829" lon="7.12486">
        <ele>39</ele>
        <time>2012-04-14T15:56:10Z</time>
      </trkpt>
      <trkpt lat="43.65824" lon="7.12451">
        <ele>31</ele>
        <time>2012-04-14T15:56:20Z</time>
      </trkpt>
      <trkpt lat="43.6582" lon="7.12439">
        <ele>12</ele>
        <time>2012-04-14T15:56:35Z</time>
      </trkpt>
      <trkpt lat="43.65802" lon="7.1241">
        <ele>11</ele>
        <time>2012-04-14T15:56:45Z</time>
      </trkpt>
      <trkpt lat="43.65795" lon="7.12383">
        <ele>27</ele>
        <time>2012-04-14T15:56:55Z</time>
      </trkpt>
      <trkpt lat="43.65784" lon="7.12354">
        <ele>26</ele>
        <time>2012-04-14T15:57:05Z</time>
      </trkpt>
      <trkpt lat="43.65778" lon="7.12321">
        <ele>25</ele>
        <time>2012-04-14T15:57:15Z</time>
      </trkpt>
      <trkpt lat="43.65771" lon="7.12278">
        <ele>25</ele>
        <time>2012-04-14T15:57:25Z</time>
      </trkpt>
      <trkpt lat="43.65758" lon="7.12249">
        <ele>24</ele>
        <time>2012-04-14T15:57:35Z</time>
      </trkpt>
      <trkpt lat="43.65747" lon="7.12218">
        <ele>26</ele>
        <time>2012-04-14T15:57:45Z</time>
      </trkpt>
      <trkpt lat="43.65733" lon="7.12189">
        <ele>26</ele>
        <time>2012-04-14T15:57:56Z</time>
      </trkpt>
      <trkpt lat="43.65719" lon="7.12156">
        <ele>21</ele>
        <time>2012-04-14T15:58:06Z</time>
      </trkpt>
      <trkpt lat="43.65709" lon="7.12122">
        <ele>20</ele>
        <time>2012-04-14T15:58:16Z</time>
      </trkpt>
      <trkpt lat="43.65699" lon="7.12093">
        <ele>23</ele>
        <time>2012-04-14T15:58:26Z</time>
      </trkpt>
      <trkpt lat="43.6569" lon="7.1207">
        <ele>33</ele>
        <time>2012-04-14T15:58:37Z</time>
      </trkpt>
      <trkpt lat="43.65671" lon="7.12064">
        <ele>28</ele>
        <time>2012-04-14T15:58:47Z</time>
      </trkpt>
      <trkpt lat="43.65654" lon="7.12083">
        <ele>21</ele>
        <time>2012-04-14T15:58:58Z</time>
      </trkpt>
      <trkpt lat="43.6566" lon="7.12073">
        <ele>21</ele>
        <time>2012-04-14T15:59:09Z</time>
      </trkpt>
      <trkpt lat="43.65687" lon="7.12064">
        <ele>11</ele>
        <time>2012-04-14T15:59:19Z</time>
      </trkpt>
      <trkpt lat="43.65702" lon="7.12052">
        <ele>6</ele>
        <time>2012-04-14T15:59:29Z</time>
      </trkpt>
      <trkpt lat="43.65723" lon="7.12028">
        <ele>6</ele>
        <time>2012-04-14T15:59:39Z</time>
      </trkpt>
      <trkpt lat="43.65748" lon="7.12032">
        <ele>9</ele>
        <time>2012-04-14T15:59:49Z</time>
      </trkpt>
      <trkpt lat="43.65774" lon="7.12029">
        <ele>9</ele>
        <time>2012-04-14T16:00:00Z</time>
      </trkpt>
      <trkpt lat="43.65792" lon="7.12022">
        <ele>8</ele>
        <time>2012-04-14T16:00:10Z</time>
      </trkpt>
      <trkpt lat="43.65811" lon="7.12011">
        <ele>2</ele>
        <time>2012-04-14T16:00:20Z</time>
      </trkpt>
      <trkpt lat="43.65825" lon="7.11997">
        <ele>6</ele>
        <time>2012-04-14T16:00:30Z</time>
      </trkpt>
      <trkpt lat="43.65843" lon="7.11975">
        <ele>6</ele>
        <time>2012-04-14T16:00:40Z</time>
      </trkpt>
      <trkpt lat="43.65866" lon="7.11951">
        <ele>6</ele>
        <time>2012-04-14T16:00:50Z</time>
      </trkpt>
      <trkpt lat="43.65885" lon="7.11923">
        <ele>6</ele>
        <time>2012-04-14T16:01:00Z</time>
      </trkpt>
      <trkpt lat="43.65907" lon="7.11896">
        <ele>6</ele>
        <time>2012-04-14T16:01:10Z</time>
      </trkpt>
      <trkpt lat="43.65923" lon="7.11871">
        <ele>6</ele>
        <time>2012-04-14T16:01:20Z</time>
      </trkpt>
      <trkpt lat="43.65933" lon="7.11841">
        <ele>6</ele>
        <time>2012-04-14T16:01:30Z</time>
      </trkpt>
      <trkpt lat="43.65939" lon="7.11815">
        <ele>5</ele>
        <time>2012-04-14T16:01:40Z</time>
      </trkpt>
      <trkpt lat="43.65956" lon="7.1179">
        <ele>11.2</ele>
        <time>2012-04-14T16:01:50Z</time>
      </trkpt>
      <trkpt lat="43.65971" lon="7.11762">
        <ele>11.6</ele>
        <time>2012-04-14T16:02:00Z</time>
      </trkpt>
      <trkpt lat="43.65982" lon="7.11734">
        <ele>11.5</ele>
        <time>2012-04-14T16:02:10Z</time>
      </trkpt>
      <trkpt lat="43.65991" lon="7.11711">
        <ele>4</ele>
        <time>2012-04-14T16:02:20Z</time>
      </trkpt>
      <trkpt lat="43.66008" lon="7.11685">
        <ele>7</ele>
        <time>2012-04-14T16:02:30Z</time>
      </trkpt>
      <trkpt lat="43.66019" lon="7.11669">
        <ele>16</ele>
        <time>2012-04-14T16:02:40Z</time>
      </trkpt>
      <trkpt lat="43.66032" lon="7.11645">
        <ele>25</ele>
        <time>2012-04-14T16:02:50Z</time>
      </trkpt>
      <trkpt lat="43.66043" lon="7.11622">
        <ele>35</ele>
        <time>2012-04-14T16:03:00Z</time>
      </trkpt>
      <trkpt lat="43.66054" lon="7.11598">
        <ele>51</ele>
        <time>2012-04-14T16:03:10Z</time>
      </trkpt>
      <trkpt lat="43.66064" lon="7.11572">
        <ele>62</ele>
        <time>2012-04-14T16:03:20Z</time>
      </trkpt>
      <trkpt lat="43.66075" lon="7.11542">
        <ele>73</ele>
        <time>2012-04-14T16:03:30Z</time>
      </trkpt>
      <trkpt lat="43.66088" lon="7.11509">
        <ele>73</ele>
        <time>2012-04-14T16:03:40Z</time>
      </trkpt>
      <trkpt lat="43.66101" lon="7.1148">
        <ele>62</ele>
        <time>2012-04-14T16:03:50Z</time>
      </trkpt>
      <trkpt lat="43.66119" lon="7.11457">
        <ele>50</ele>
        <time>2012-04-14T16:04:00Z</time>
      </trkpt>
      <trkpt lat="43.66141" lon="7.11436">
        <ele>48</ele>
        <time>2012-04-14T16:04:10Z</time>
      </trkpt>
      <trkpt lat="43.66165" lon="7.11422">
        <ele>48</ele>
        <time>2012-04-14T16:04:20Z</time>
      </trkpt>
      <trkpt lat="43.66188" lon="7.11405">
        <ele>48</ele>
        <time>2012-04-14T16:04:30Z</time>
      </trkpt>
      <trkpt lat="43.66208" lon="7.11391">
        <ele>45</ele>
        <time>2012-04-14T16:04:40Z</time>
      </trkpt>
      <trkpt lat="43.66224" lon="7.11369">
        <ele>31</ele>
        <time>2012-04-14T16:04:50Z</time>
      </trkpt>
      <trkpt lat="43.66249" lon="7.11358">
        <ele>18</ele>
        <time>2012-04-14T16:05:00Z</time>
      </trkpt>
      <trkpt lat="43.66273" lon="7.11348">
        <ele>12</ele>
        <time>2012-04-14T16:05:10Z</time>
      </trkpt>
      <trkpt lat="43.66289" lon="7.11348">
        <ele>12</ele>
        <time>2012-04-14T16:05:20Z</time>
      </trkpt>
      <trkpt lat="43.66308" lon="7.11341">
        <ele>11</ele>
        <time>2012-04-14T16:05:30Z</time>
      </trkpt>
      <trkpt lat="43.66328" lon="7.11334">
        <ele>10</ele>
        <time>2012-04-14T16:05:40Z</time>
      </trkpt>
      <trkpt lat="43.66355" lon="7.11321">
        <ele>10</ele>
        <time>2012-04-14T16:05:50Z</time>
      </trkpt>
      <trkpt lat="43.66377" lon="7.11302">
        <ele>12</ele>
        <time>2012-04-14T16:06:00Z</time>
      </trkpt>
      <trkpt lat="43.66398" lon="7.11282">
        <ele>12</ele>
        <time>2012-04-14T16:06:10Z</time>
      </trkpt>
      <trkpt lat="43.66427" lon="7.11269">
        <ele>12</ele>
        <time>2012-04-14T16:06:20Z</time>
      </trkpt>
      <trkpt lat="43.66444" lon="7.11248">
        <ele>10</ele>
        <time>2012-04-14T16:06:30Z</time>
      </trkpt>
      <trkpt lat="43.66458" lon="7.11231">
        <ele>10</ele>
        <time>2012-04-14T16:06:40Z</time>
      </trkpt>
      <trkpt lat="43.66481" lon="7.11213">
        <ele>13</ele>
        <time>2012-04-14T16:06:50Z</time>
      </trkpt>
      <trkpt lat="43.66496" lon="7.11198">
        <ele>21</ele>
        <time>2012-04-14T16:07:00Z</time>
      </trkpt>
      <trkpt lat="43.66521" lon="7.11184">
        <ele>21</ele>
        <time>2012-04-14T16:07:10Z</time>
      </trkpt>
      <trkpt lat="43.66546" lon="7.11175">
        <ele>15</ele>
        <time>2012-04-14T16:07:20Z</time>
      </trkpt>
      <trkpt lat="43.66576" lon="7.11163">
        <ele>15</ele>
        <time>2012-04-14T16:07:30Z</time>
      </trkpt>
      <trkpt lat="43.66598" lon="7.11159">
        <ele>21</ele>
        <time>2012-04-14T16:07:40Z</time>
      </trkpt>
      <trkpt lat="43.6662" lon="7.11146">
        <ele>24</ele>
        <time>2012-04-14T16:07:50Z</time>
      </trkpt>
      <trkpt lat="43.66646" lon="7.11143">
        <ele>22</ele>
        <time>2012-04-14T16:08:00Z</time>
      </trkpt>
      <trkpt lat="43.66664" lon="7.1113">
        <ele>21</ele>
        <time>2012-04-14T16:08:10Z</time>
      </trkpt>
      <trkpt lat="43.66687" lon="7.11115">
        <ele>21</ele>
        <time>2012-04-14T16:08:20Z</time>
      </trkpt>
      <trkpt lat="43.66704" lon="7.11096">
        <ele>21</ele>
        <time>2012-04-14T16:08:30Z</time>
      </trkpt>
      <trkpt lat="43.6672" lon="7.11081">
        <ele>21</ele>
        <time>2012-04-14T16:08:40Z</time>
      </trkpt>
      <trkpt lat="43.66746" lon="7.11055">
        <ele>21</ele>
        <time>2012-04-14T16:08:50Z</time>
      </trkpt>
      <trkpt lat="43.66765" lon="7.1103">
        <ele>19</ele>
        <time>2012-04-14T16:09:00Z</time>
      </trkpt>
      <trkpt lat="43.66779" lon="7.11008">
        <ele>19</ele>
        <time>2012-04-14T16:09:10Z</time>
      </trkpt>
      <trkpt lat="43.66792" lon="7.10981">
        <ele>20</ele>
        <time>2012-04-14T16:09:20Z</time>
      </trkpt>
      <trkpt lat="43.66801" lon="7.10965">
        <ele>20</ele>
        <time>2012-04-14T16:09:31Z</time>
      </trkpt>
      <trkpt lat="43.66804" lon="7.10947">
        <ele>23</ele>
        <time>2012-04-14T16:09:41Z</time>
      </trkpt>
      <trkpt lat="43.66811" lon="7.10946">
        <ele>25</ele>
        <time>2012-04-14T16:09:51Z</time>
      </trkpt>
      <trkpt lat="43.6681" lon="7.10969">
        <ele>24</ele>
        <time>2012-04-14T16:10:01Z</time>
      </trkpt>
      <trkpt lat="43.66803" lon="7.1099">
        <ele>24</ele>
        <time>2012-04-14T16:10:11Z</time>
      </trkpt>
      <trkpt lat="43.66787" lon="7.11017">
        <ele>24</ele>
        <time>2012-04-14T16:10:21Z</time>
      </trkpt>
      <trkpt lat="43.66771" lon="7.11045">
        <ele>23</ele>
        <time>2012-04-14T16:10:31Z</time>
      </trkpt>
      <trkpt lat="43.66752" lon="7.11072">
        <ele>22</ele>
        <time>2012-04-14T16:10:41Z</time>
      </trkpt>
      <trkpt lat="43.66733" lon="7.11092">
        <ele>19</ele>
        <time>2012-04-14T16:10:51Z</time>
      </trkpt>
      <trkpt lat="43.66719" lon="7.11108">
        <ele>17</ele>
        <time>2012-04-14T16:11:01Z</time>
      </trkpt>
      <trkpt lat="43.667" lon="7.11135">
        <ele>14</ele>
        <time>2012-04-14T16:11:11Z</time>
      </trkpt>
      <trkpt lat="43.66677" lon="7.11151">
        <ele>17</ele>
        <time>2012-04-14T16:11:21Z</time>
      </trkpt>
      <trkpt lat="43.66655" lon="7.11164">
        <ele>19</ele>
        <time>2012-04-14T16:11:31Z</time>
      </trkpt>
      <trkpt lat="43.66632" lon="7.11177">
        <ele>16</ele>
        <time>2012-04-14T16:11:41Z</time>
      </trkpt>
      <trkpt lat="43.66609" lon="7.11189">
        <ele>15</ele>
        <time>2012-04-14T16:11:51Z</time>
      </trkpt>
      <trkpt lat="43.66586" lon="7.11191">
        <ele>15</ele>
        <time>2012-04-14T16:12:03Z</time>
      </trkpt>
      <trkpt lat="43.66567" lon="7.11197">
        <ele>15</ele>
        <time>2012-04-14T16:12:13Z</time>
      </trkpt>
      <trkpt lat="43.66542" lon="7.11209">
        <ele>14</ele>
        <time>2012-04-14T16:12:23Z</time>
      </trkpt>
      <trkpt lat="43.66521" lon="7.1122">
        <ele>10</ele>
        <time>2012-04-14T16:12:33Z</time>
      </trkpt>
      <trkpt lat="43.66501" lon="7.1123">
        <ele>10</ele>
        <time>2012-04-14T16:12:43Z</time>
      </trkpt>
      <trkpt lat="43.66486" lon="7.11249">
        <ele>11</ele>
        <time>2012-04-14T16:12:53Z</time>
      </trkpt>
      <trkpt lat="43.66462" lon="7.11274">
        <ele>11</ele>
        <time>2012-04-14T16:13:03Z</time>
      </trkpt>
      <trkpt lat="43.66435" lon="7.11289">
        <ele>11</ele>
        <time>2012-04-14T16:13:13Z</time>
      </trkpt>
      <trkpt lat="43.66413" lon="7.11304">
        <ele>11</ele>
        <time>2012-04-14T16:13:23Z</time>
      </trkpt>
      <trkpt lat="43.66392" lon="7.11322">
        <ele>8</ele>
        <time>2012-04-14T16:13:33Z</time>
      </trkpt>
      <trkpt lat="43.66371" lon="7.11334">
        <ele>7</ele>
        <time>2012-04-14T16:13:43Z</time>
      </trkpt>
      <trkpt lat="43.66343" lon="7.11347">
        <ele>8</ele>
        <time>2012-04-14T16:13:53Z</time>
      </trkpt>
      <trkpt lat="43.66317" lon="7.11359">
        <ele>8</ele>
        <time>2012-04-14T16:14:03Z</time>
      </trkpt>
      <trkpt lat="43.66294" lon="7.11363">
        <ele>8</ele>
        <time>2012-04-14T16:14:13Z</time>
      </trkpt>
      <trkpt lat="43.66277" lon="7.11369">
        <ele>17</ele>
        <time>2012-04-14T16:14:23Z</time>
      </trkpt>
      <trkpt lat="43.66259" lon="7.11377">
        <ele>23</ele>
        <time>2012-04-14T16:14:33Z</time>
      </trkpt>
      <trkpt lat="43.66241" lon="7.1139">
        <ele>25</ele>
        <time>2012-04-14T16:14:44Z</time>
      </trkpt>
      <trkpt lat="43.66219" lon="7.11403">
        <ele>30</ele>
        <time>2012-04-14T16:14:54Z</time>
      </trkpt>
      <trkpt lat="43.66192" lon="7.11425">
        <ele>33</ele>
        <time>2012-04-14T16:15:04Z</time>
      </trkpt>
      <trkpt lat="43.66164" lon="7.11443">
        <ele>42</ele>
        <time>2012-04-14T16:15:14Z</time>
      </trkpt>
      <trkpt lat="43.66137" lon="7.11461">
        <ele>40</ele>
        <time>2012-04-14T16:15:25Z</time>
      </trkpt>
      <trkpt lat="43.66116" lon="7.1148">
        <ele>36</ele>
        <time>2012-04-14T16:15:35Z</time>
      </trkpt>
      <trkpt lat="43.66092" lon="7.11494">
        <ele>26</ele>
        <time>2012-04-14T16:15:45Z</time>
      </trkpt>
      <trkpt lat="43.66084" lon="7.1152">
        <ele>19</ele>
        <time>2012-04-14T16:15:55Z</time>
      </trkpt>
      <trkpt lat="43.6607" lon="7.11551">
        <ele>19</ele>
        <time>2012-04-14T16:16:05Z</time>
      </trkpt>
      <trkpt lat="43.6606" lon="7.11577">
        <ele>19</ele>
        <time>2012-04-14T16:16:16Z</time>
      </trkpt>
      <trkpt lat="43.66051" lon="7.11606">
        <ele>19</ele>
        <time>2012-04-14T16:16:26Z</time>
      </trkpt>
      <trkpt lat="43.66037" lon="7.11638">
        <ele>19</ele>
        <time>2012-04-14T16:16:36Z</time>
      </trkpt>
      <trkpt lat="43.66026" lon="7.11662">
        <ele>20</ele>
        <time>2012-04-14T16:16:46Z</time>
      </trkpt>
      <trkpt lat="43.66007" lon="7.1169">
        <ele>22</ele>
        <time>2012-04-14T16:16:56Z</time>
      </trkpt>
      <trkpt lat="43.65993" lon="7.11716">
        <ele>24</ele>
        <time>2012-04-14T16:17:06Z</time>
      </trkpt>
      <trkpt lat="43.6598" lon="7.11744">
        <ele>24</ele>
        <time>2012-04-14T16:17:16Z</time>
      </trkpt>
      <trkpt lat="43.65965" lon="7.11776">
        <ele>23</ele>
        <time>2012-04-14T16:17:26Z</time>
      </trkpt>
      <trkpt lat="43.6595" lon="7.11807">
        <ele>19</ele>
        <time>2012-04-14T16:17:36Z</time>
      </trkpt>
      <trkpt lat="43.65938" lon="7.11835">
        <ele>18</ele>
        <time>2012-04-14T16:17:46Z</time>
      </trkpt>
      <trkpt lat="43.65926" lon="7.11862">
        <ele>18</ele>
        <time>2012-04-14T16:17:56Z</time>
      </trkpt>
      <trkpt lat="43.65912" lon="7.1189">
        <ele>18</ele>
        <time>2012-04-14T16:18:06Z</time>
      </trkpt>
      <trkpt lat="43.65895" lon="7.11913">
        <ele>18</ele>
        <time>2012-04-14T16:18:16Z</time>
      </trkpt>
      <trkpt lat="43.65879" lon="7.11935">
        <ele>17</ele>
        <time>2012-04-14T16:18:26Z</time>
      </trkpt>
      <trkpt lat="43.65863" lon="7.11955">
        <ele>17</ele>
        <time>2012-04-14T16:18:36Z</time>
      </trkpt>
      <trkpt lat="43.65839" lon="7.1198">
        <ele>18</ele>
        <time>2012-04-14T16:18:46Z</time>
      </trkpt>
      <trkpt lat="43.65824" lon="7.12002">
        <ele>19</ele>
        <time>2012-04-14T16:18:56Z</time>
      </trkpt>
      <trkpt lat="43.65805" lon="7.12017">
        <ele>19</ele>
        <time>2012-04-14T16:19:07Z</time>
      </trkpt>
      <trkpt lat="43.65784" lon="7.12029">
        <ele>19</ele>
        <time>2012-04-14T16:19:17Z</time>
      </trkpt>
      <trkpt lat="43.65752" lon="7.12031">
        <ele>18</ele>
        <time>2012-04-14T16:19:27Z</time>
      </trkpt>
      <trkpt lat="43.65726" lon="7.12032">
        <ele>15</ele>
        <time>2012-04-14T16:19:37Z</time>
      </trkpt>
      <trkpt lat="43.65707" lon="7.12054">
        <ele>15</ele>
        <time>2012-04-14T16:19:47Z</time>
      </trkpt>
      <trkpt lat="43.65696" lon="7.12063">
        <ele>15</ele>
        <time>2012-04-14T16:19:57Z</time>
      </trkpt>
      <trkpt lat="43.65672" lon="7.1207">
        <ele>15</ele>
        <time>2012-04-14T16:20:07Z</time>
      </trkpt>
      <trkpt lat="43.65655" lon="7.12088">
        <ele>15</ele>
        <time>2012-04-14T16:20:17Z</time>
      </trkpt>
      <trkpt lat="43.6566" lon="7.12062">
        <ele>15</ele>
        <time>2012-04-14T16:20:27Z</time>
      </trkpt>
      <trkpt lat="43.65675" lon="7.12051">
        <ele>17</ele>
        <time>2012-04-14T16:20:37Z</time>
      </trkpt>
      <trkpt lat="43.65689" lon="7.12061">
        <ele>22</ele>
        <time>2012-04-14T16:20:47Z</time>
      </trkpt>
      <trkpt lat="43.65697" lon="7.12084">
        <ele>29</ele>
        <time>2012-04-14T16:20:57Z</time>
      </trkpt>
      <trkpt lat="43.65706" lon="7.12113">
        <ele>29</ele>
        <time>2012-04-14T16:21:07Z</time>
      </trkpt>
      <trkpt lat="43.65716" lon="7.12144">
        <ele>27</ele>
        <time>2012-04-14T16:21:17Z</time>
      </trkpt>
      <trkpt lat="43.65728" lon="7.12171">
        <ele>26</ele>
        <time>2012-04-14T16:21:27Z</time>
      </trkpt>
      <trkpt lat="43.65737" lon="7.12204">
        <ele>26</ele>
        <time>2012-04-14T16:21:37Z</time>
      </trkpt>
      <trkpt lat="43.65747" lon="7.12232">
        <ele>26</ele>
        <time>2012-04-14T16:21:47Z</time>
      </trkpt>
      <trkpt lat="43.65756" lon="7.12267">
        <ele>21</ele>
        <time>2012-04-14T16:21:57Z</time>
      </trkpt>
      <trkpt lat="43.65766" lon="7.12292">
        <ele>20</ele>
        <time>2012-04-14T16:22:07Z</time>
      </trkpt>
      <trkpt lat="43.65776" lon="7.12318">
        <ele>20</ele>
        <time>2012-04-14T16:22:17Z</time>
      </trkpt>
      <trkpt lat="43.65788" lon="7.12343">
        <ele>20</ele>
        <time>2012-04-14T16:22:27Z</time>
      </trkpt>
      <trkpt lat="43.65793" lon="7.12373">
        <ele>22</ele>
        <time>2012-04-14T16:22:37Z</time>
      </trkpt>
      <trkpt lat="43.65802" lon="7.12406">
        <ele>22</ele>
        <time>2012-04-14T16:22:47Z</time>
      </trkpt>
      <trkpt lat="43.65815" lon="7.12436">
        <ele>22</ele>
        <time>2012-04-14T16:22:57Z</time>
      </trkpt>
      <trkpt lat="43.65824" lon="7.12459">
        <ele>22</ele>
        <time>2012-04-14T16:23:07Z</time>
      </trkpt>
      <trkpt lat="43.6583" lon="7.1248">
        <ele>24</ele>
        <time>2012-04-14T16:23:17Z</time>
      </trkpt>
      <trkpt lat="43.65839" lon="7.12511">
        <ele>25</ele>
        <time>2012-04-14T16:23:27Z</time>
      </trkpt>
      <trkpt lat="43.65846" lon="7.1254">
        <ele>25</ele>
        <time>2012-04-14T16:23:37Z</time>
      </trkpt>
      <trkpt lat="43.65855" lon="7.12569">
        <ele>27</ele>
        <time>2012-04-14T16:23:47Z</time>
      </trkpt>
      <trkpt lat="43.65864" lon="7.12597">
        <ele>28</ele>
        <time>2012-04-14T16:23:57Z</time>
      </trkpt>
      <trkpt lat="43.65873" lon="7.12625">
        <ele>29</ele>
        <time>2012-04-14T16:24:07Z</time>
      </trkpt>
      <trkpt lat="43.65878" lon="7.12655">
        <ele>30</ele>
        <time>2012-04-14T16:24:17Z</time>
      </trkpt>
      <trkpt lat="43.65886" lon="7.12681">
        <ele>30</ele>
        <time>2012-04-14T16:24:27Z</time>
      </trkpt>
      <trkpt lat="43.65896" lon="7.12706">
        <ele>30</ele>
        <time>2012-04-14T16:24:37Z</time>
      </trkpt>
      <trkpt lat="43.65903" lon="7.12733">
        <ele>30</ele>
        <time>2012-04-14T16:24:47Z</time>
      </trkpt>
      <trkpt lat="43.65901" lon="7.12762">
        <ele>32</ele>
        <time>2012-04-14T16:24:57Z</time>
      </trkpt>
      <trkpt lat="43.65898" lon="7.12786">
        <ele>39</ele>
        <time>2012-04-14T16:25:07Z</time>
      </trkpt>
      <trkpt lat="43.65896" lon="7.12816">
        <ele>40</ele>
        <time>2012-04-14T16:25:17Z</time>
      </trkpt>
      <trkpt lat="43.65894" lon="7.12848">
        <ele>40</ele>
        <time>2012-04-14T16:25:27Z</time>
      </trkpt>
      <trkpt lat="43.65887" lon="7.12871">
        <ele>40</ele>
        <time>2012-04-14T16:25:37Z</time>
      </trkpt>
      <trkpt lat="43.65878" lon="7.12895">
        <ele>40</ele>
        <time>2012-04-14T16:25:47Z</time>
      </trkpt>
      <trkpt lat="43.65868" lon="7.12922">
        <ele>40</ele>
        <time>2012-04-14T16:25:57Z</time>
      </trkpt>
      <trkpt lat="43.65879" lon="7.12941">
        <ele>40</ele>
        <time>2012-04-14T16:26:07Z</time>
      </trkpt>
      <trkpt lat="43.65896" lon="7.12937">
        <ele>41</ele>
        <time>2012-04-14T16:26:17Z</time>
      </trkpt>
      <trkpt lat="43.65912" lon="7.12929">
        <ele>45</ele>
        <time>2012-04-14T16:26:27Z</time>
      </trkpt>
      <trkpt lat="43.6593" lon="7.12918">
        <ele>48</ele>
        <time>2012-04-14T16:26:37Z</time>
      </trkpt>
      <trkpt lat="43.6595" lon="7.1292">
        <ele>50</ele>
        <time>2012-04-14T16:26:47Z</time>
      </trkpt>
      <trkpt lat="43.65964" lon="7.12937">
        <ele>53</ele>
        <time>2012-04-14T16:26:57Z</time>
      </trkpt>
      <trkpt lat="43.65978" lon="7.1295">
        <ele>53</ele>
        <time>2012-04-14T16:27:07Z</time>
      </trkpt>
      <trkpt lat="43.65979" lon="7.12975">
        <ele>54</ele>
        <time>2012-04-14T16:27:17Z</time>
      </trkpt>
      <trkpt lat="43.65972" lon="7.13009">
        <ele>54</ele>
        <time>2012-04-14T16:27:27Z</time>
      </trkpt>
      <trkpt lat="43.6596" lon="7.13036">
        <ele>52</ele>
        <time>2012-04-14T16:27:37Z</time>
      </trkpt>
      <trkpt lat="43.65944" lon="7.13056">
        <ele>51</ele>
        <time>2012-04-14T16:27:47Z</time>
      </trkpt>
      <trkpt lat="43.65932" lon="7.13078">
        <ele>51</ele>
        <time>2012-04-14T16:27:57Z</time>
      </trkpt>
      <trkpt lat="43.6592" lon="7.13103">
        <ele>51</ele>
        <time>2012-04-14T16:28:07Z</time>
      </trkpt>
      <trkpt lat="43.6591" lon="7.13132">
        <ele>46</ele>
        <time>2012-04-14T16:28:17Z</time>
      </trkpt>
      <trkpt lat="43.65901" lon="7.13154">
        <ele>45</ele>
        <time>2012-04-14T16:28:27Z</time>
      </trkpt>
      <trkpt lat="43.6589" lon="7.13179">
        <ele>45</ele>
        <time>2012-04-14T16:28:37Z</time>
      </trkpt>
      <trkpt lat="43.65884" lon="7.13212">
        <ele>43</ele>
        <time>2012-04-14T16:28:47Z</time>
      </trkpt>
      <trkpt lat="43.6588" lon="7.1324">
        <ele>38</ele>
        <time>2012-04-14T16:28:57Z</time>
      </trkpt>
      <trkpt lat="43.65878" lon="7.13268">
        <ele>38</ele>
        <time>2012-04-14T16:29:07Z</time>
      </trkpt>
      <trkpt lat="43.65877" lon="7.13292">
        <ele>38</ele>
        <time>2012-04-14T16:29:17Z</time>
      </trkpt>
      <trkpt lat="43.65875" lon="7.13314">
        <ele>38</ele>
        <time>2012-04-14T16:29:27Z</time>
      </trkpt>
      <trkpt lat="43.65873" lon="7.13343">
        <ele>40</ele>
        <time>2012-04-14T16:29:37Z</time>
      </trkpt>
      <trkpt lat="43.65866" lon="7.1338">
        <ele>37</ele>
        <time>2012-04-14T16:29:47Z</time>
      </trkpt>
      <trkpt lat="43.65861" lon="7.13412">
        <ele>32</ele>
        <time>2012-04-14T16:29:58Z</time>
      </trkpt>
      <trkpt lat="43.65854" lon="7.13441">
        <ele>32</ele>
        <time>2012-04-14T16:30:08Z</time>
      </trkpt>
      <trkpt lat="43.65844" lon="7.13465">
        <ele>32</ele>
        <time>2012-04-14T16:30:18Z</time>
      </trkpt>
      <trkpt lat="43.65842" lon="7.13496">
        <ele>32</ele>
        <time>2012-04-14T16:30:28Z</time>
      </trkpt>
      <trkpt lat="43.6584" lon="7.13518">
        <ele>40</ele>
        <time>2012-04-14T16:30:38Z</time>
      </trkpt>
      <trkpt lat="43.65846" lon="7.13543">
        <ele>45</ele>
        <time>2012-04-14T16:30:48Z</time>
      </trkpt>
      <trkpt lat="43.65853" lon="7.13571">
        <ele>49</ele>
        <time>2012-04-14T16:30:58Z</time>
      </trkpt>
      <trkpt lat="43.65859" lon="7.13608">
        <ele>46</ele>
        <time>2012-04-14T16:31:08Z</time>
      </trkpt>
      <trkpt lat="43.65867" lon="7.13635">
        <ele>46</ele>
        <time>2012-04-14T16:31:18Z</time>
      </trkpt>
      <trkpt lat="43.65873" lon="7.13671">
        <ele>39</ele>
        <time>2012-04-14T16:31:28Z</time>
      </trkpt>
      <trkpt lat="43.6588" lon="7.13705">
        <ele>27</ele>
        <time>2012-04-14T16:31:39Z</time>
      </trkpt>
      <trkpt lat="43.65893" lon="7.13726">
        <ele>18</ele>
        <time>2012-04-14T16:31:49Z</time>
      </trkpt>
      <trkpt lat="43.65914" lon="7.13735">
        <ele>21</ele>
        <time>2012-04-14T16:31:59Z</time>
      </trkpt>
      <trkpt lat="43.65931" lon="7.13738">
        <ele>31</ele>
        <time>2012-04-14T16:32:09Z</time>
      </trkpt>
      <trkpt lat="43.65954" lon="7.13746">
        <ele>41</ele>
        <time>2012-04-14T16:32:19Z</time>
      </trkpt>
      <trkpt lat="43.65979" lon="7.13744">
        <ele>43</ele>
        <time>2012-04-14T16:32:29Z</time>
      </trkpt>
      <trkpt lat="43.65985" lon="7.13712">
        <ele>38</ele>
        <time>2012-04-14T16:32:39Z</time>
      </trkpt>
      <trkpt lat="43.65991" lon="7.13727">
        <ele>30</ele>
        <time>2012-04-14T16:32:49Z</time>
      </trkpt>
      <trkpt lat="43.65988" lon="7.1376">
        <ele>28</ele>
        <time>2012-04-14T16:32:59Z</time>
      </trkpt>
      <trkpt lat="43.66007" lon="7.13779">
        <ele>27</ele>
        <time>2012-04-14T16:33:09Z</time>
      </trkpt>
      <trkpt lat="43.66028" lon="7.1379">
        <ele>27</ele>
        <time>2012-04-14T16:33:19Z</time>
      </trkpt>
      <trkpt lat="43.66048" lon="7.13787">
        <ele>27</ele>
        <time>2012-04-14T16:33:29Z</time>
      </trkpt>
      <trkpt lat="43.66057" lon="7.1376">
        <ele>27</ele>
        <time>2012-04-14T16:33:39Z</time>
      </trkpt>
      <trkpt lat="43.66061" lon="7.13732">
        <ele>27</ele>
        <time>2012-04-14T16:33:49Z</time>
      </trkpt>
      <trkpt lat="43.66064" lon="7.13701">
        <ele>28</ele>
        <time>2012-04-14T16:33:59Z</time>
      </trkpt>
      <trkpt lat="43.66068" lon="7.13678">
        <ele>33</ele>
        <time>2012-04-14T16:34:09Z</time>
      </trkpt>
      <trkpt lat="43.66076" lon="7.13651">
        <ele>35</ele>
        <time>2012-04-14T16:34:19Z</time>
      </trkpt>
      <trkpt lat="43.66082" lon="7.13625">
        <ele>38</ele>
        <time>2012-04-14T16:34:29Z</time>
      </trkpt>
      <trkpt lat="43.66089" lon="7.136">
        <ele>39</ele>
        <time>2012-04-14T16:34:39Z</time>
      </trkpt>
      <trkpt lat="43.66094" lon="7.13573">
        <ele>40</ele>
        <time>2012-04-14T16:34:49Z</time>
      </trkpt>
      <trkpt lat="43.66103" lon="7.13545">
        <ele>40</ele>
        <time>2012-04-14T16:34:59Z</time>
      </trkpt>
      <trkpt lat="43.66109" lon="7.13517">
        <ele>40</ele>
        <time>2012-04-14T16:35:09Z</time>
      </trkpt>
      <trkpt lat="43.66115" lon="7.1349">
        <ele>40</ele>
        <time>2012-04-14T16:35:19Z</time>
      </trkpt>
      <trkpt lat="43.66123" lon="7.13463">
        <ele>40</ele>
        <time>2012-04-14T16:35:29Z</time>
      </trkpt>
      <trkpt lat="43.66133" lon="7.13439">
        <ele>40</ele>
        <time>2012-04-14T16:35:39Z</time>
      </trkpt>
      <trkpt lat="43.66144" lon="7.13415">
        <ele>38</ele>
        <time>2012-04-14T16:35:49Z</time>
      </trkpt>
      <trkpt lat="43.66159" lon="7.13395">
        <ele>37</ele>
        <time>2012-04-14T16:35:59Z</time>
      </trkpt>
      <trkpt lat="43.66176" lon="7.13381">
        <ele>34</ele>
        <time>2012-04-14T16:36:09Z</time>
      </trkpt>
      <trkpt lat="43.66189" lon="7.13372">
        <ele>34</ele>
        <time>2012-04-14T16:36:19Z</time>
      </trkpt>
      <trkpt lat="43.66192" lon="7.13374">
        <ele>36</ele>
        <time>2012-04-14T16:36:29Z</time>
      </trkpt>
      <trkpt lat="43.66187" lon="7.13378">
        <ele>36</ele>
        <time>2012-04-14T16:36:35Z</time>
      </trkpt>
    </trkseg>
  </trk>
</gpx>